Time;durP1;ratioP1;P1;durP2;ratioP2;P2;SDS_P1;SDS_P2;PMS_P1;PMS_P2;Temp;Humidity;BMP_temperature;BMP_pressure;BME280_temperature;BME280_humidity;BME280_pressure;Samples;Min_cycle;Max_cycle;Signal;HPM_P1;HPM_P2
2022/06/24 00:02:20;;;;;;;;;7.00;6.00;;;;;26.47;58.20;100481.38;5069416;22;45406;-87
2022/06/24 00:04:55;;;;;;;;;7.00;5.00;;;;;26.39;55.62;100480.56;5071897;28;45448;-93
2022/06/24 00:07:21;;;;;;;;;3.00;3.00;;;;;26.28;55.98;100479.91;5059788;28;45430;-94
2022/06/24 00:15:00;;;;;;;;;4.00;3.00;;;;;24.75;58.01;100311.56;5193514;22;45564;-96
2022/06/24 00:17:32;;;;;;;;;5.00;4.00;;;;;24.38;58.16;100256.50;5486782;22;45202;-96
2022/06/24 00:20:00;;;;;;;;;3.00;3.00;;;;;25.86;59.07;100491.06;5254487;22;46866;-92
2022/06/24 00:22:28;;;;;;;;;2.33;2.33;;;;;25.17;58.22;100398.66;5057699;28;45469;-95
2022/06/24 00:25:06;;;;;;;;;5.00;5.00;;;;;25.79;59.67;100492.78;5055261;28;45943;-94
2022/06/24 00:27:32;;;;;;;;;3.33;3.33;;;;;25.62;59.52;100472.84;5049791;28;45984;-95
2022/06/24 00:29:57;;;;;;;;;4.00;3.00;;;;;25.57;60.52;100467.06;5061870;28;45400;-94
2022/06/24 00:32:30;;;;;;;;;4.67;3.33;;;;;25.67;60.96;100493.13;5061042;28;45334;-94
2022/06/24 00:35:09;;;;;;;;;5.00;4.00;;;;;25.46;61.35;100468.25;5067131;28;45551;-94
2022/06/24 00:37:36;;;;;;;;;4.33;4.33;;;;;25.28;62.23;100432.94;5060126;28;45357;-95
2022/06/24 00:40:11;;;;;;;;;4.00;3.00;;;;;25.56;61.85;100490.75;5055036;28;46643;-96
2022/06/24 00:42:44;;;;;;;;;4.67;4.67;;;;;25.30;61.95;100452.72;5058299;28;45338;-96
2022/06/24 00:45:38;;;;;;;;;5.00;3.33;;;;;25.48;62.00;100497.06;5061460;28;45513;-96
2022/06/24 00:48:12;;;;;;;;;4.33;4.33;;;;;25.40;62.82;100488.03;5057878;28;45457;-96
2022/06/24 00:50:42;;;;;;;;;5.00;4.00;;;;;25.06;61.50;100442.63;5062084;28;46271;-96
2022/06/24 00:53:07;;;;;;;;;3.00;3.00;;;;;25.24;59.27;100481.53;5066533;28;45537;-96
2022/06/24 00:55:36;;;;;;;;;5.00;4.00;;;;;25.32;60.69;100491.59;5048981;28;45513;-96
2022/06/24 00:58:03;;;;;;;;;6.00;3.67;;;;;25.32;59.97;100496.22;5060108;28;44860;-96
2022/06/24 01:00:31;;;;;;;;;4.00;4.00;;;;;25.04;60.02;100463.75;5036901;28;47290;-96
2022/06/24 01:03:02;;;;;;;;;4.33;4.33;;;;;25.30;59.11;100498.25;5068237;28;44709;-96
2022/06/24 01:05:30;;;;;;;;;4.00;4.00;;;;;25.27;60.15;100492.09;5099205;28;45337;-96
2022/06/24 01:07:57;;;;;;;;;3.00;3.00;;;;;25.12;59.63;100465.63;5105758;28;44846;-96
2022/06/24 01:10:23;;;;;;;;;3.33;3.33;;;;;25.19;56.81;100489.38;5102914;28;46405;-96
2022/06/24 01:15:24;;;;;;;;;2.67;2.67;;;;;25.16;57.06;100502.47;6065936;22;45582;-96
2022/06/24 01:48:52;;;;;;;;;3.00;3.00;;;;;24.18;55.14;100415.75;5901660;22;45741;-95
2022/06/24 01:53:53;;;;;;;;;8.33;7.00;;;;;24.38;77.96;100542.53;5336549;22;45505;-87
2022/06/24 01:56:19;;;;;;;;;6.33;5.00;;;;;23.43;86.06;100478.88;5051903;28;45333;-86
2022/06/24 01:58:44;;;;;;;;;2.00;2.00;;;;;23.36;87.98;100532.19;5052683;28;45480;-89
2022/06/24 02:01:10;;;;;;;;;4.33;4.33;;;;;23.11;84.71;100534.69;5048090;28;45481;-90
2022/06/24 02:03:38;;;;;;;;;7.00;5.67;;;;;22.96;82.88;100542.44;5049382;28;45561;-89
2022/06/24 02:06:06;;;;;;;;;3.00;2.00;;;;;22.50;81.79;100480.94;5049159;28;45500;-91
2022/06/24 02:08:32;;;;;;;;;5.00;5.00;;;;;22.27;80.14;100447.91;5064697;28;45549;-93
2022/06/24 02:13:44;;;;;;;;;2.00;2.00;;;;;22.73;77.52;100509.44;5066732;28;45358;-94
2022/06/24 02:16:11;;;;;;;;;4.00;4.00;;;;;22.60;74.86;100489.06;5056159;28;45429;-94
2022/06/24 02:18:37;;;;;;;;;2.00;2.00;;;;;22.69;72.90;100509.88;5049944;28;45524;-93
2022/06/24 02:21:02;;;;;;;;;2.33;2.33;;;;;22.61;73.51;100488.03;5051252;28;46625;-91
2022/06/24 02:23:29;;;;;;;;;4.00;4.00;;;;;22.62;72.85;100484.31;5053814;28;45350;-94
2022/06/24 02:25:55;;;;;;;;;3.00;3.00;;;;;22.63;73.09;100472.44;5038335;28;45432;-95
2022/06/24 02:28:20;;;;;;;;;3.33;2.67;;;;;22.74;72.45;100499.41;5048783;28;45447;-94
2022/06/24 02:30:47;;;;;;;;;3.67;2.67;;;;;22.73;71.76;100504.00;5054301;28;46069;-94
2022/06/24 02:33:13;;;;;;;;;3.00;3.00;;;;;22.61;71.49;100483.44;5031095;28;45336;-96
2022/06/24 02:35:40;;;;;;;;;6.00;6.00;;;;;22.62;75.48;100501.47;5061429;28;45428;-91
2022/06/24 02:38:06;;;;;;;;;3.00;3.00;;;;;21.98;77.50;100418.13;5043237;28;45351;-91
2022/06/24 02:40:51;;;;;;;;;3.33;2.67;;;;;22.61;76.41;100510.59;5022493;28;48075;-91
2022/06/24 02:43:20;;;;;;;;;5.33;2.67;;;;;22.63;77.06;100480.59;5054018;28;45430;-91
2022/06/24 02:45:47;;;;;;;;;4.00;4.00;;;;;22.66;77.35;100467.53;5030527;28;45389;-91
2022/06/24 02:48:14;;;;;;;;;4.00;3.00;;;;;22.36;77.12;100413.53;5049788;28;45453;-92
2022/06/24 02:50:41;;;;;;;;;3.00;3.00;;;;;22.43;75.94;100431.81;5054942;28;45768;-92
2022/06/24 02:53:06;;;;;;;;;2.67;2.67;;;;;22.57;76.42;100449.47;5063930;28;45971;-92
2022/06/24 02:55:32;;;;;;;;;1.00;1.00;;;;;22.75;75.44;100463.06;5045843;28;45761;-93
2022/06/24 02:57:57;;;;;;;;;3.00;3.00;;;;;22.84;74.47;100481.16;5042849;28;45714;-94
2022/06/24 03:00:23;;;;;;;;;3.00;3.00;;;;;22.55;74.12;100422.44;5041795;28;48473;-94
2022/06/24 03:02:48;;;;;;;;;5.00;4.00;;;;;22.80;74.82;100458.00;5054848;28;45499;-93
2022/06/24 03:05:13;;;;;;;;;3.00;3.00;;;;;22.85;73.51;100463.88;5064147;28;45567;-93
2022/06/24 03:07:39;;;;;;;;;3.00;3.00;;;;;22.89;73.20;100470.69;5067158;28;45577;-94
2022/06/24 03:10:05;;;;;;;;;3.00;3.00;;;;;22.20;73.45;100357.19;5051792;28;46446;-96
2022/06/24 03:12:30;;;;;;;;;3.00;3.00;;;;;22.78;73.38;100443.75;5053155;28;45386;-95
2022/06/24 03:14:55;;;;;;;;;2.33;2.33;;;;;22.81;73.53;100454.31;5062702;28;45390;-94
2022/06/24 03:17:21;;;;;;;;;2.00;2.00;;;;;22.88;73.74;100458.13;5043966;28;45505;-96
2022/06/24 03:19:48;;;;;;;;;1.33;1.33;;;;;23.00;72.94;100466.09;5048035;28;45737;-94
2022/06/24 03:22:14;;;;;;;;;3.67;2.33;;;;;22.95;72.12;100458.34;5038999;28;45528;-95
2022/06/24 03:24:42;;;;;;;;;2.33;2.33;;;;;22.94;72.21;100459.34;5054897;28;45854;-95
2022/06/24 03:27:07;;;;;;;;;2.00;2.00;;;;;22.34;71.75;100357.53;5053474;28;45333;-94
2022/06/24 03:29:33;;;;;;;;;3.00;3.00;;;;;21.63;71.38;100246.06;5036998;28;47226;-96
2022/06/24 03:31:58;;;;;;;;;3.00;3.00;;;;;22.68;72.33;100432.91;5068175;28;45490;-96
2022/06/24 03:34:24;;;;;;;;;4.00;3.00;;;;;22.11;71.89;100334.50;5041302;28;45521;-95
2022/06/24 03:36:50;;;;;;;;;3.67;2.67;;;;;21.80;72.51;100271.56;5033067;28;45463;-96
2022/06/24 03:39:18;;;;;;;;;2.00;2.00;;;;;21.83;71.18;100274.81;5060242;28;47241;-95
2022/06/24 03:41:44;;;;;;;;;4.00;2.33;;;;;22.99;72.46;100467.06;5067222;28;45519;-96
2022/06/24 03:44:09;;;;;;;;;2.33;2.33;;;;;22.52;69.55;100392.00;5071638;28;45549;-95
2022/06/24 03:46:35;;;;;;;;;3.00;3.00;;;;;22.63;70.09;100431.69;5069738;28;45426;-95
2022/06/24 03:49:09;;;;;;;;;5.00;3.00;;;;;21.60;70.18;100258.06;5057955;28;48586;-96
2022/06/24 03:51:36;;;;;;;;;4.00;2.33;;;;;21.61;69.23;100245.38;5041122;28;45428;-96
2022/06/24 03:54:27;;;;;;;;;2.00;2.00;;;;;22.11;68.38;100342.66;5064700;28;45747;-96
2022/06/24 03:56:56;;;;;;;;;2.00;2.00;;;;;22.38;68.68;100389.81;5047722;28;45343;-96
2022/06/24 03:59:31;;;;;;;;;3.33;3.33;;;;;22.04;68.53;100334.25;5071992;28;45947;-96
2022/06/24 04:01:57;;;;;;;;;3.00;3.00;;;;;21.30;69.02;100210.38;5050982;28;45413;-96
2022/06/24 04:04:24;;;;;;;;;5.00;3.67;;;;;21.53;69.02;100258.84;5052258;28;45445;-96
2022/06/24 04:06:49;;;;;;;;;3.00;3.00;;;;;22.44;68.39;100392.78;5057747;28;45378;-96
2022/06/24 04:09:15;;;;;;;;;2.33;2.33;;;;;22.38;69.64;100397.94;5042825;28;47011;-96
2022/06/24 04:11:40;;;;;;;;;3.00;3.00;;;;;22.01;69.15;100323.69;5053451;28;45429;-95
2022/06/24 04:14:06;;;;;;;;;3.00;3.00;;;;;22.14;68.90;100342.34;5032425;28;45402;-96
2022/06/24 04:16:31;;;;;;;;;4.00;3.00;;;;;22.27;68.25;100372.72;5052953;28;45306;-96
2022/06/24 04:19:06;;;;;;;;;4.67;4.67;;;;;21.67;68.39;100275.44;5064814;28;45598;-96
2022/06/24 04:21:32;;;;;;;;;3.00;3.00;;;;;21.95;69.33;100346.00;5050502;28;45382;-94
2022/06/24 04:23:58;;;;;;;;;3.00;2.00;;;;;21.82;69.44;100318.34;5051610;28;45388;-96
2022/06/24 04:26:24;;;;;;;;;2.00;2.00;;;;;21.42;68.40;100235.47;5061570;28;44992;-96
2022/06/24 04:28:50;;;;;;;;;1.00;1.00;;;;;21.77;68.76;100301.69;5040425;28;45499;-96
2022/06/24 04:31:19;;;;;;;;;2.00;2.00;;;;;21.50;68.63;100268.13;5062778;28;45393;-96
2022/06/24 04:33:45;;;;;;;;;3.67;3.67;;;;;21.98;68.98;100353.00;5054030;28;45521;-96
2022/06/24 04:36:14;;;;;;;;;2.67;2.67;;;;;21.97;68.28;100345.88;5051090;28;45429;-95
2022/06/24 04:38:41;;;;;;;;;2.67;2.67;;;;;21.47;67.62;100252.16;5042476;28;47369;-95
2022/06/24 04:41:37;;;;;;;;;1.33;1.33;;;;;21.56;67.53;100282.94;5058728;28;45485;-96
2022/06/24 04:44:18;;;;;;;;;6.00;3.00;;;;;21.48;68.32;100273.69;5053381;28;45433;-96
2022/06/24 04:46:50;;;;;;;;;3.33;3.33;;;;;21.53;67.55;100253.41;5047237;28;45374;-96
2022/06/24 04:49:38;;;;;;;;;2.33;2.33;;;;;21.55;67.75;100260.38;5065360;28;45405;-96
2022/06/24 04:52:26;;;;;;;;;2.33;2.00;;;;;21.85;67.24;100318.06;5055515;28;45211;-95
2022/06/24 04:55:13;;;;;;;;;3.00;3.00;;;;;22.23;68.05;100370.47;5049635;28;45508;-96
2022/06/24 05:00:39;;;;;;;;;5.00;4.00;;;;;22.85;68.00;100461.16;5682413;22;46146;-95
2022/06/24 05:03:05;;;;;;;;;6.33;5.00;;;;;21.76;67.37;100289.97;5059039;28;45571;-96
2022/06/24 05:05:30;;;;;;;;;6.67;4.33;;;;;21.70;67.47;100274.28;5059130;28;45573;-94
2022/06/24 05:07:56;;;;;;;;;2.67;2.00;;;;;22.07;67.76;100323.06;5067632;28;45263;-95
2022/06/24 05:10:25;;;;;;;;;6.00;4.33;;;;;22.42;66.79;100389.34;5059481;28;45321;-95
2022/06/24 05:12:50;;;;;;;;;3.67;3.33;;;;;21.89;66.67;100314.91;5063479;28;45323;-94
2022/06/24 05:15:16;;;;;;;;;3.00;3.00;;;;;21.89;67.36;100320.34;5051109;28;45518;-90
2022/06/24 05:17:41;;;;;;;;;3.00;3.00;;;;;22.72;67.22;100453.34;5054268;28;45441;-95
2022/06/24 05:20:07;;;;;;;;;3.33;3.33;;;;;22.72;68.01;100449.78;5057565;28;46254;-94
2022/06/24 05:22:33;;;;;;;;;4.00;4.00;;;;;22.85;67.22;100477.47;5058205;28;45381;-94
2022/06/24 05:24:58;;;;;;;;;3.00;3.00;;;;;22.85;67.49;100480.19;5059200;28;45536;-86
2022/06/24 05:27:24;;;;;;;;;5.33;5.00;;;;;22.72;67.18;100463.38;5059581;28;45413;-92
2022/06/24 05:29:49;;;;;;;;;5.33;4.67;;;;;22.60;66.78;100451.88;5058445;28;45826;-95
2022/06/24 05:32:15;;;;;;;;;6.67;5.00;;;;;22.56;66.70;100442.31;5059944;28;45472;-96
2022/06/24 05:34:40;;;;;;;;;3.67;3.67;;;;;22.77;66.89;100464.63;5061819;28;45468;-92
2022/06/24 05:37:05;;;;;;;;;4.00;4.00;;;;;22.66;67.51;100440.38;5056298;28;45442;-92
2022/06/24 05:39:31;;;;;;;;;2.00;2.00;;;;;22.81;66.58;100453.47;5065512;28;45653;-93
2022/06/24 05:41:56;;;;;;;;;4.00;4.00;;;;;22.92;66.02;100470.41;5054015;28;45521;-92
2022/06/24 05:44:21;;;;;;;;;3.00;3.00;;;;;22.97;66.25;100478.09;5052627;28;45490;-93
2022/06/24 05:46:47;;;;;;;;;6.00;5.00;;;;;22.81;65.67;100448.03;5055993;28;45402;-93
2022/06/24 05:49:12;;;;;;;;;3.00;3.00;;;;;22.94;66.47;100481.97;5055024;28;46294;-94
2022/06/24 05:51:38;;;;;;;;;4.00;3.67;;;;;22.89;66.11;100467.97;5059079;28;45506;-92
2022/06/24 05:56:50;;;;;;;;;4.33;3.00;;;;;22.39;65.12;100380.66;5044844;28;45219;-93
2022/06/24 05:59:15;;;;;;;;;5.33;4.00;;;;;22.76;65.15;100443.91;5058581;28;46219;-93
2022/06/24 06:01:44;;;;;;;;;5.00;4.00;;;;;21.93;65.69;100299.16;5062271;27;45454;-93
2022/06/24 06:04:17;;;;;;;;;5.00;5.00;;;;;21.76;65.27;100292.69;5061678;28;45388;-90
2022/06/24 06:06:42;;;;;;;;;5.33;5.33;;;;;22.22;64.54;100356.03;5046222;28;45584;-93
2022/06/24 06:09:08;;;;;;;;;4.00;4.00;;;;;22.45;64.89;100399.06;5061881;28;46017;-91
2022/06/24 06:11:33;;;;;;;;;3.33;3.33;;;;;23.04;63.73;100498.25;5055195;28;45553;-90
2022/06/24 06:13:59;;;;;;;;;4.33;4.33;;;;;22.99;63.63;100497.81;5054810;28;45487;-89
2022/06/24 06:16:26;;;;;;;;;3.00;3.00;;;;;22.83;63.51;100501.22;5054028;28;45579;-90
2022/06/24 06:18:52;;;;;;;;;7.00;5.00;;;;;22.47;64.34;100509.25;5056428;28;46348;-85
2022/06/24 06:21:17;;;;;;;;;5.67;4.67;;;;;21.34;66.37;100358.19;5057919;28;45496;-85
2022/06/24 06:23:44;;;;;;;;;5.00;5.00;;;;;22.41;66.22;100507.16;5054192;27;45780;-85
2022/06/24 06:26:11;;;;;;;;;5.33;4.00;;;;;22.49;66.33;100507.25;5062228;28;45396;-86
2022/06/24 06:28:37;;;;;;;;;3.67;3.67;;;;;22.01;65.10;100456.69;5058527;28;45520;-86
2022/06/24 06:31:03;;;;;;;;;3.67;3.67;;;;;22.14;65.47;100508.78;5058219;28;45529;-87
2022/06/24 06:33:31;;;;;;;;;3.33;3.33;;;;;22.03;66.06;100513.53;5049696;28;46246;-88
2022/06/24 06:36:06;;;;;;;;;3.33;3.33;;;;;21.93;65.94;100510.84;5052601;28;45625;-87
2022/06/24 06:38:31;;;;;;;;;3.00;3.00;;;;;21.70;66.22;100469.59;5065462;27;46488;-88
2022/06/24 06:40:56;;;;;;;;;2.00;2.00;;;;;21.85;66.67;100511.56;5055716;28;45493;-86
2022/06/24 06:43:22;;;;;;;;;3.00;3.00;;;;;21.65;65.85;100499.03;5064985;28;45500;-88
2022/06/24 06:45:47;;;;;;;;;4.00;2.33;;;;;21.69;66.76;100509.44;5061208;28;45515;-88
2022/06/24 06:48:12;;;;;;;;;3.00;3.00;;;;;21.70;66.74;100513.00;5032852;28;53630;-90
2022/06/24 06:50:37;;;;;;;;;58.50;46.75;;;;;21.45;66.90;100466.53;5056450;28;45997;-89
2022/06/24 06:53:03;;;;;;;;;17.33;13.67;;;;;21.74;67.25;100510.88;5061329;28;45395;-86
2022/06/24 06:55:29;;;;;;;;;4.00;4.00;;;;;21.73;66.58;100520.00;5065437;28;45578;-87
2022/06/24 06:57:55;;;;;;;;;5.00;4.00;;;;;21.44;66.76;100480.22;5055915;28;46589;-87
2022/06/24 07:00:21;;;;;;;;;4.00;4.00;;;;;21.21;66.61;100436.25;5051058;28;45464;-87
2022/06/24 07:02:46;;;;;;;;;3.33;2.33;;;;;21.46;66.76;100479.06;5062388;28;48809;-87
2022/06/24 07:05:11;;;;;;;;;4.00;4.00;;;;;21.45;66.55;100479.22;5055237;28;45460;-86
2022/06/24 07:07:37;;;;;;;;;5.33;4.33;;;;;21.64;67.00;100506.31;5065872;28;45560;-86
2022/06/24 07:10:02;;;;;;;;;4.67;4.67;;;;;21.42;67.00;100461.41;5052124;28;49765;-87
2022/06/24 07:12:28;;;;;;;;;5.00;4.33;;;;;21.79;67.58;100514.00;5048215;28;45497;-87
2022/06/24 07:14:53;;;;;;;;;4.00;4.00;;;;;21.75;67.11;100501.72;5061503;28;45599;-87
2022/06/24 07:17:19;;;;;;;;;4.33;4.33;;;;;21.81;66.99;100507.44;5054736;28;47381;-86
2022/06/24 07:19:46;;;;;;;;;4.00;3.00;;;;;21.91;66.47;100515.56;5063360;28;45480;-87
2022/06/24 07:22:11;;;;;;;;;4.00;4.00;;;;;21.82;66.18;100487.47;5055317;28;45314;-87
2022/06/24 07:24:37;;;;;;;;;3.67;3.67;;;;;21.79;66.15;100470.59;5054466;28;45621;-86
2022/06/24 07:27:09;;;;;;;;;3.33;2.33;;;;;21.97;65.88;100495.97;5059110;28;48461;-87
2022/06/24 07:29:36;;;;;;;;;3.00;2.00;;;;;22.09;67.03;100502.09;5056727;28;45860;-86
2022/06/24 07:32:03;;;;;;;;;5.67;4.00;;;;;22.30;65.12;100494.59;5051589;28;45343;-86
2022/06/24 07:34:32;;;;;;;;;4.00;4.00;;;;;22.50;64.52;100494.50;5053287;28;45461;-86
2022/06/24 07:37:02;;;;;;;;;7.00;4.00;;;;;22.69;64.91;100494.44;5052139;28;47411;-86
2022/06/24 07:39:31;;;;;;;;;4.67;3.33;;;;;22.84;64.09;100488.47;5056735;28;45525;-85
2022/06/24 07:41:57;;;;;;;;;5.33;4.00;;;;;23.02;63.75;100486.66;5046895;28;45422;-85
2022/06/24 07:44:23;;;;;;;;;4.00;3.00;;;;;23.02;64.17;100454.03;5065704;28;45511;-86
2022/06/24 07:46:49;;;;;;;;;3.00;3.00;;;;;23.32;63.18;100476.38;5060341;28;46072;-86
2022/06/24 07:49:15;;;;;;;;;5.33;5.00;;;;;23.50;62.67;100487.25;5062975;28;45529;-86
2022/06/24 07:51:41;;;;;;;;;2.00;2.00;;;;;23.58;61.87;100479.19;5060643;28;45525;-86
2022/06/24 07:54:07;;;;;;;;;1.67;1.67;;;;;23.64;61.82;100486.69;5055158;28;45350;-86
2022/06/24 07:59:20;;;;;;;;;4.00;3.00;;;;;23.76;60.52;100493.66;5054240;28;45556;-86
2022/06/24 08:01:52;;;;;;;;;2.00;2.00;;;;;23.67;59.66;100467.34;5067754;28;45660;-87
2022/06/24 08:04:19;;;;;;;;;2.00;2.00;;;;;23.92;59.73;100492.03;5060031;28;45527;-86
2022/06/24 08:06:46;;;;;;;;;3.67;3.33;;;;;23.48;60.43;100405.81;5058482;28;47368;-88
2022/06/24 08:09:13;;;;;;;;;3.00;3.00;;;;;24.08;60.25;100481.25;5061371;28;45626;-88
2022/06/24 08:11:38;;;;;;;;;2.00;2.00;;;;;24.22;59.44;100479.78;5057379;28;45458;-88
2022/06/24 08:14:04;;;;;;;;;3.33;3.33;;;;;24.24;58.62;100469.59;5065586;28;45502;-89
2022/06/24 08:16:29;;;;;;;;;3.67;3.67;;;;;24.31;58.30;100459.75;5059804;28;46028;-88
2022/06/24 08:18:55;;;;;;;;;5.00;5.00;;;;;24.43;57.83;100485.69;5058975;28;45610;-87
2022/06/24 08:21:21;;;;;;;;;4.67;4.67;;;;;24.18;57.32;100453.88;5059980;28;45559;-87
2022/06/24 08:23:46;;;;;;;;;3.67;3.67;;;;;24.27;56.20;100484.75;5041043;28;45583;-88
2022/06/24 08:26:12;;;;;;;;;7.33;4.00;;;;;24.19;56.10;100485.56;5064338;28;46382;-87
2022/06/24 08:28:37;;;;;;;;;3.33;3.00;;;;;24.31;55.38;100491.59;5060392;27;45686;-87
2022/06/24 08:31:02;;;;;;;;;4.33;4.33;;;;;24.15;54.62;100460.53;5055443;28;45457;-87
2022/06/24 08:33:28;;;;;;;;;3.00;3.00;;;;;24.12;54.79;100460.84;5055355;28;45572;-88
2022/06/24 08:35:53;;;;;;;;;2.67;2.67;;;;;24.18;54.55;100468.34;5055648;28;45554;-86
2022/06/24 08:38:19;;;;;;;;;2.33;2.33;;;;;24.36;54.24;100476.47;5064702;28;45421;-86
2022/06/24 08:40:50;;;;;;;;;1.33;1.33;;;;;24.73;53.88;100490.78;5055491;28;45397;-86
2022/06/24 08:43:16;;;;;;;;;2.00;2.00;;;;;24.94;53.25;100482.16;5044694;28;45456;-86
2022/06/24 08:45:42;;;;;;;;;2.00;2.00;;;;;25.05;52.31;100479.97;5059228;28;47629;-87
2022/06/24 08:48:08;;;;;;;;;1.67;1.67;;;;;25.15;51.72;100473.50;5054434;28;45537;-87
2022/06/24 08:50:33;;;;;;;;;0.00;0.00;;;;;24.87;50.69;100405.63;5064505;28;45397;-88
2022/06/24 08:53:05;;;;;;;;;4.67;3.00;;;;;25.32;51.21;100468.94;5058258;28;45359;-87
2022/06/24 08:55:37;;;;;;;;;1.50;1.50;;;;;25.41;50.69;100457.00;5052144;28;47311;-87
2022/06/24 08:58:12;;;;;;;;;1.75;1.75;;;;;25.60;49.91;100485.81;5056893;28;45480;-87
2022/06/24 09:00:39;;;;;;;;;3.00;2.00;;;;;25.12;50.06;100376.47;5055920;28;45596;-86
2022/06/24 09:03:05;;;;;;;;;2.00;2.00;;;;;25.76;49.85;100474.88;5061901;28;45369;-89
2022/06/24 09:05:31;;;;;;;;;1.00;1.00;;;;;25.62;49.32;100423.72;5057587;28;48368;-87
2022/06/24 09:08:07;;;;;;;;;3.33;2.00;;;;;25.81;50.47;100419.75;5065908;28;45638;-86
2022/06/24 09:10:34;;;;;;;;;1.00;1.00;;;;;26.56;48.88;100454.88;5055401;28;45505;-87
2022/06/24 09:12:59;;;;;;;;;1.00;1.00;;;;;26.85;47.99;100459.66;5041297;28;45383;-87
2022/06/24 09:15:25;;;;;;;;;1.00;1.00;;;;;26.77;47.58;100405.03;5059178;28;51871;-88
2022/06/24 09:17:51;;;;;;;;;3.00;1.00;;;;;27.19;47.77;100419.28;5055339;28;45396;-86
2022/06/24 09:20:21;;;;;;;;;1.75;1.75;;;;;27.75;47.24;100433.50;5064125;28;45565;-87
2022/06/24 09:23:06;;;;;;;;;3.00;1.67;;;;;28.21;45.67;100447.03;5058698;27;45496;-87
2022/06/24 09:25:57;;;;;;;;;0.50;0.50;;;;;28.42;44.41;100432.56;5047730;28;47306;-86
2022/06/24 09:28:30;;;;;;;;;2.33;1.00;;;;;28.30;43.92;100431.34;5031151;28;45447;-86
2022/06/24 09:31:06;;;;;;;;;1.00;1.00;;;;;28.11;42.85;100408.13;5057631;28;45319;-86
2022/06/24 09:33:40;;;;;;;;;2.00;1.00;;;;;28.18;44.32;100378.91;5059065;28;45449;-86
2022/06/24 09:36:07;;;;;;;;;1.00;1.00;;;;;28.89;42.09;100424.91;5052973;28;46318;-85
2022/06/24 09:38:52;;;;;;;;;1.00;1.00;;;;;29.45;43.11;100412.19;5044217;28;45824;-86
2022/06/24 09:41:17;;;;;;;;;2.00;2.00;;;;;29.77;41.54;100385.19;5049285;28;45495;-86
2022/06/24 09:43:43;;;;;;;;;2.33;2.33;;;;;30.04;40.36;100366.94;5066259;28;45455;-86
2022/06/24 09:46:17;;;;;;;;;3.00;3.00;;;;;30.48;39.87;100387.69;5052085;28;46351;-86
2022/06/24 09:48:43;;;;;;;;;2.00;1.00;;;;;30.42;39.09;100383.00;5040972;28;45453;-86
2022/06/24 09:51:08;;;;;;;;;1.00;1.00;;;;;30.63;38.59;100397.66;5054660;28;45692;-84
2022/06/24 09:53:40;;;;;;;;;1.00;1.00;;;;;30.94;39.52;100399.03;5053638;28;45826;-88
2022/06/24 09:56:07;;;;;;;;;1.00;1.00;;;;;31.15;38.50;100407.09;5064537;28;45782;-85
2022/06/24 10:01:45;;;;;;;;;1.00;1.00;;;;;30.97;36.76;100267.31;4988735;28;45825;-86
2022/06/24 10:04:17;;;;;;;;;2.00;2.00;;;;;30.96;36.16;100275.81;4970333;28;45600;-87
2022/06/24 10:06:48;;;;;;;;;1.00;1.00;;;;;31.16;36.13;100370.25;4980048;28;46135;-86
2022/06/24 10:09:14;;;;;;;;;1.00;1.00;;;;;31.06;36.17;100392.69;4979578;28;45424;-85
2022/06/24 10:11:44;;;;;;;;;1.00;1.00;;;;;30.88;36.93;100393.31;4988801;28;45597;-88
2022/06/24 10:14:12;;;;;;;;;0.75;0.75;;;;;30.78;37.14;100394.72;4985525;28;45636;-86
2022/06/24 10:16:42;;;;;;;;;1.00;1.00;;;;;30.72;37.50;100390.94;4987331;28;46745;-85
2022/06/24 10:19:10;;;;;;;;;1.25;1.25;;;;;31.09;37.82;100394.16;4984664;28;45481;-85
2022/06/24 10:21:36;;;;;;;;;2.00;0.75;;;;;31.30;36.31;100390.38;4978384;28;45560;-86
2022/06/24 10:24:12;;;;;;;;;0.25;0.25;;;;;31.16;36.00;100363.91;4983658;28;45506;-85
2022/06/24 10:26:39;;;;;;;;;1.00;1.00;;;;;31.30;35.46;100387.63;4964431;28;47666;-86
2022/06/24 10:29:05;;;;;;;;;2.00;2.00;;;;;31.19;36.14;100402.00;4980124;28;45495;-86
2022/06/24 10:31:42;;;;;;;;;0.75;0.75;;;;;30.96;37.68;100364.75;4971336;28;45793;-85
2022/06/24 10:34:22;;;;;;;;;1.00;1.00;;;;;31.51;38.01;100398.44;4979516;28;45614;-86
2022/06/24 10:40:47;;;;;;;;;0.00;0.00;;;;;30.33;36.10;100260.47;5009513;28;47417;-85
2022/06/24 10:43:12;;;;;;;;;0.00;0.00;;;;;29.88;36.75;100252.72;5019831;28;45521;-84
2022/06/24 10:45:38;;;;;;;;;7.00;7.00;;;;;29.74;37.22;100371.00;4998659;28;45509;-84
2022/06/24 10:48:03;;;;;;;;;2.00;2.00;;;;;29.37;37.71;100386.75;5008789;28;46607;-85
2022/06/24 10:50:29;;;;;;;;;0.00;0.00;;;;;28.57;38.02;100276.28;5021381;28;45586;-85
2022/06/24 10:53:12;;;;;;;;;2.00;1.00;;;;;29.32;38.01;100384.63;5015194;28;45607;-91
2022/06/24 10:58:44;;;;;;;;;1.00;1.00;;;;;28.78;38.43;100379.66;5034297;22;74366;-88
2022/06/24 11:01:09;;;;;;;;;0.25;0.25;;;;;27.49;39.27;100229.47;5069550;22;45575;-87
2022/06/24 11:03:39;;;;;;;;;0.00;0.00;;;;;27.89;39.48;100314.91;5031021;28;45614;-85
2022/06/24 11:06:07;;;;;;;;;0.50;0.50;;;;;27.67;39.57;100304.88;5036364;28;45458;-85
2022/06/24 11:08:37;;;;;;;;;0.00;0.00;;;;;27.22;41.02;100288.44;5025682;28;45543;-86
2022/06/24 11:11:05;;;;;;;;;1.00;1.00;;;;;26.99;43.86;100266.56;5039565;28;45307;-87
2022/06/24 11:13:34;;;;;;;;;1.25;1.25;;;;;26.60;83.22;100264.00;5044852;28;45813;-88
2022/06/24 11:16:00;;;;;;;;;2.67;1.00;;;;;26.85;50.10;100327.53;5028854;28;45730;-85
2022/06/24 11:18:39;;;;;;;;;2.67;2.67;;;;;26.62;51.56;100322.09;5043826;28;47400;-87
2022/06/24 11:21:08;;;;;;;;;0.50;0.50;;;;;25.96;53.51;100237.78;5030837;28;45525;-87
2022/06/24 11:23:35;;;;;;;;;1.67;1.67;;;;;27.04;54.62;100411.88;5028574;28;45517;-87
2022/06/24 11:26:53;;;;;;;;;1.00;1.00;;;;;27.03;54.77;100401.94;5046701;28;45431;-87
2022/06/24 11:29:22;;;;;;;;;1.00;1.00;;;;;26.14;55.51;100255.78;5029439;28;45721;-89
2022/06/24 11:31:49;;;;;;;;;0.33;0.33;;;;;25.84;53.21;100196.34;5039183;28;45625;-88
2022/06/24 11:34:14;;;;;;;;;1.25;1.25;;;;;26.09;53.88;100254.44;5037691;28;45782;-87
2022/06/24 11:36:41;;;;;;;;;1.33;1.33;;;;;26.74;53.99;100334.31;5041999;28;45700;-86
2022/06/24 11:39:17;;;;;;;;;1.00;1.00;;;;;27.29;55.34;100398.84;5032836;28;45591;-87
2022/06/24 11:41:47;;;;;;;;;1.00;1.00;;;;;26.31;52.77;100192.63;5035580;28;45561;-87
2022/06/24 11:44:13;;;;;;;;;2.67;2.67;;;;;26.96;51.37;100280.63;5038053;28;45639;-87
2022/06/24 11:46:49;;;;;;;;;1.00;1.00;;;;;26.63;51.61;100201.63;5039632;28;45350;-87
2022/06/24 11:49:19;;;;;;;;;1.50;1.00;;;;;27.71;48.81;100378.25;5031369;28;45407;-86
2022/06/24 11:51:45;;;;;;;;;1.00;1.00;;;;;26.86;49.84;100230.81;5026492;28;45459;-87
2022/06/24 11:54:11;;;;;;;;;1.00;1.00;;;;;27.73;50.71;100376.16;5035028;28;45529;-85
2022/06/24 11:56:49;;;;;;;;;0.67;0.67;;;;;27.96;49.38;100402.66;5030337;28;45429;-86
2022/06/24 11:59:20;;;;;;;;;2.00;0.33;;;;;26.58;49.13;100149.41;5018329;28;48402;-87
2022/06/24 12:01:46;;;;;;;;;3.00;2.00;;;;;27.31;49.30;100250.88;5036298;28;45728;-86
2022/06/24 12:04:15;;;;;;;;;0.25;0.00;;;;;27.44;46.19;100281.19;5029289;28;45735;-86
2022/06/24 12:06:42;;;;;;;;;0.50;0.00;;;;;28.07;45.49;100404.06;5033824;28;45676;-85
2022/06/24 12:09:11;;;;;;;;;0.00;0.00;;;;;28.11;44.74;100400.75;5025635;28;46175;-87
2022/06/24 12:11:44;;;;;;;;;0.33;0.33;;;;;28.01;43.99;100361.84;5031196;28;45531;-85
2022/06/24 12:14:12;;;;;;;;;1.00;1.00;;;;;27.32;44.78;100294.50;5022427;28;45788;-84
2022/06/24 12:20:04;;;;;;;;;0.00;0.00;;;;;27.23;44.27;100325.72;5038005;28;45453;-88
2022/06/24 12:22:30;;;;;;;;;0.00;0.00;;;;;27.59;45.03;100387.97;5013423;28;45971;-90
2022/06/24 12:25:01;;;;;;;;;0.25;0.25;;;;;27.35;45.34;100358.97;5033087;28;45589;-88
2022/06/24 12:27:41;;;;;;;;;1.00;1.00;;;;;26.57;45.36;100254.28;5033419;28;45547;-90
2022/06/24 12:30:19;;;;;;;;;1.50;0.75;;;;;26.72;46.64;100320.81;5032814;28;45640;-91
2022/06/24 12:33:14;;;;;;;;;1.00;1.00;;;;;27.00;46.54;100396.84;5018272;28;45704;-87
2022/06/24 12:35:43;;;;;;;;;0.00;0.00;;;;;25.88;46.52;100224.19;5027830;28;45581;-87
2022/06/24 12:38:12;;;;;;;;;1.50;1.50;;;;;26.50;47.22;100303.38;5020976;28;45577;-90